Time;durP1;ratioP1;P1;durP2;ratioP2;P2;SDS_P1;SDS_P2;PMS_P1;PMS_P2;Temp;Humidity;BMP_temperature;BMP_pressure;BME280_temperature;BME280_humidity;BME280_pressure;Samples;Min_cycle;Max_cycle;Signal;HPM_P1;HPM_P2
2023/12/29 00:01:20;;;;;;;6.17;1.40;;;;;;;;;;5020131;28;20108;-94
2023/12/29 00:03:46;;;;;;;8.93;1.80;;;;;;;;;;5000459;28;20109;-94
2023/12/29 00:06:11;;;;;;;7.90;1.63;;;;;;;;;;5001300;28;20049;-93
2023/12/29 00:08:38;;;;;;;8.03;1.23;;;;;;;;;;5017490;28;20025;-94
2023/12/29 00:11:04;;;;;;;8.38;1.45;;;;;;;;;;5017048;28;20006;-95
2023/12/29 00:13:29;;;;;;;10.18;1.60;;;;;;;;;;5000619;28;20018;-94
2023/12/29 00:15:55;;;;;;;11.20;2.00;;;;;;;;;;4998699;28;20017;-95
2023/12/29 00:18:20;;;;;;;10.90;1.63;;;;;;;;;;5000257;28;20418;-94
2023/12/29 00:20:46;;;;;;;12.03;1.60;;;;;;;;;;5000650;28;20037;-93
2023/12/29 00:23:14;;;;;;;13.73;2.07;;;;;;;;;;5017488;28;20041;-95
2023/12/29 00:25:39;;;;;;;9.13;1.50;;;;;;;;;;5002863;28;20308;-94
2023/12/29 00:28:05;;;;;;;5.37;1.13;;;;;;;;;;5024641;28;20018;-94
2023/12/29 00:30:32;;;;;;;10.88;1.58;;;;;;;;;;5019815;28;20010;-93
2023/12/29 00:32:58;;;;;;;8.77;1.60;;;;;;;;;;5005578;28;20069;-93
2023/12/29 00:35:23;;;;;;;9.27;1.30;;;;;;;;;;4998403;28;20085;-93
2023/12/29 00:37:50;;;;;;;6.37;1.33;;;;;;;;;;5015586;28;20025;-93
2023/12/29 00:40:15;;;;;;;11.18;1.52;;;;;;;;;;5014612;28;20101;-93
2023/12/29 00:42:40;;;;;;;13.57;1.37;;;;;;;;;;4997601;28;20482;-94
2023/12/29 00:45:06;;;;;;;11.20;1.80;;;;;;;;;;4996728;28;20085;-94
2023/12/29 00:47:31;;;;;;;8.88;1.33;;;;;;;;;;5014301;28;20018;-93
2023/12/29 00:49:56;;;;;;;12.53;1.57;;;;;;;;;;4997125;28;20030;-94
2023/12/29 00:52:21;;;;;;;9.37;1.40;;;;;;;;;;5013465;28;20026;-95
2023/12/29 00:54:47;;;;;;;11.83;1.70;;;;;;;;;;5014159;28;20388;-94
2023/12/29 00:57:12;;;;;;;8.17;1.30;;;;;;;;;;4997458;28;20026;-93
2023/12/29 00:59:40;;;;;;;11.20;1.67;;;;;;;;;;4996695;28;20079;-93
2023/12/29 01:02:05;;;;;;;10.38;1.75;;;;;;;;;;4997115;28;20033;-93
2023/12/29 01:04:30;;;;;;;10.60;1.30;;;;;;;;;;5004847;28;20026;-93
2023/12/29 01:06:56;;;;;;;8.77;1.60;;;;;;;;;;4994399;28;20033;-93
2023/12/29 01:09:28;;;;;;;7.60;1.30;;;;;;;;;;4995038;28;20014;-93
2023/12/29 01:11:53;;;;;;;6.20;1.27;;;;;;;;;;5001360;28;20037;-95
2023/12/29 01:14:22;;;;;;;10.80;1.77;;;;;;;;;;5004363;28;20009;-92
2023/12/29 01:16:47;;;;;;;7.80;1.43;;;;;;;;;;5008067;28;20022;-93
2023/12/29 01:19:13;;;;;;;11.33;2.20;;;;;;;;;;5014826;28;20010;-92
2023/12/29 01:21:38;;;;;;;11.07;1.40;;;;;;;;;;5000457;28;20038;-91
2023/12/29 01:24:04;;;;;;;11.33;1.83;;;;;;;;;;5002415;28;20057;-92
2023/12/29 01:26:29;;;;;;;13.40;2.10;;;;;;;;;;4993921;28;20497;-92
2023/12/29 01:28:55;;;;;;;6.17;1.33;;;;;;;;;;4993625;28;20033;-92
2023/12/29 01:31:20;;;;;;;9.87;1.60;;;;;;;;;;4993753;28;20039;-92
2023/12/29 01:33:45;;;;;;;11.17;1.63;;;;;;;;;;4993891;28;20060;-91
2023/12/29 01:36:16;;;;;;;11.47;1.90;;;;;;;;;;5000606;28;20470;-92
2023/12/29 01:38:41;;;;;;;12.20;1.48;;;;;;;;;;5007397;28;20160;-92
2023/12/29 01:41:06;;;;;;;12.20;1.73;;;;;;;;;;5011850;28;20489;-91
2023/12/29 01:43:33;;;;;;;13.83;2.10;;;;;;;;;;5016752;28;20034;-92
2023/12/29 01:45:58;;;;;;;12.30;1.70;;;;;;;;;;5013105;28;20101;-90
2023/12/29 01:48:25;;;;;;;13.27;1.80;;;;;;;;;;4991032;28;20057;-94
2023/12/29 01:50:51;;;;;;;14.82;1.83;;;;;;;;;;4999269;28;20017;-91
2023/12/29 01:53:16;;;;;;;14.73;1.87;;;;;;;;;;4997954;28;20219;-92
2023/12/29 01:55:42;;;;;;;13.97;2.07;;;;;;;;;;4996563;28;20037;-93
2023/12/29 01:58:07;;;;;;;8.88;1.60;;;;;;;;;;5000372;28;20096;-93
2023/12/29 02:00:33;;;;;;;6.67;1.37;;;;;;;;;;5020130;28;20030;-92
2023/12/29 02:02:59;;;;;;;11.70;1.55;;;;;;;;;;5018172;28;20052;-93
2023/12/29 02:05:26;;;;;;;15.33;1.90;;;;;;;;;;5026489;28;20018;-93
2023/12/29 02:07:52;;;;;;;12.10;1.63;;;;;;;;;;5016749;28;20018;-91
2023/12/29 02:10:17;;;;;;;13.63;2.10;;;;;;;;;;5020667;28;20018;-91
2023/12/29 02:12:45;;;;;;;11.60;2.17;;;;;;;;;;5009059;28;20288;-91
2023/12/29 02:15:11;;;;;;;11.32;1.73;;;;;;;;;;5038436;28;20014;-92
2023/12/29 02:17:39;;;;;;;14.53;1.67;;;;;;;;;;5033923;28;20082;-92
2023/12/29 02:20:05;;;;;;;16.77;1.98;;;;;;;;;;5030072;28;20022;-91
2023/12/29 02:22:30;;;;;;;8.73;1.50;;;;;;;;;;5038277;28;20026;-93
2023/12/29 02:24:55;;;;;;;10.83;1.30;;;;;;;;;;5038379;28;20048;-92
2023/12/29 02:27:24;;;;;;;11.70;2.00;;;;;;;;;;5023136;28;20014;-92
2023/12/29 02:29:57;;;;;;;7.75;1.20;;;;;;;;;;5018740;28;20059;-91
2023/12/29 02:32:23;;;;;;;13.23;1.55;;;;;;;;;;5002007;28;20010;-91
2023/12/29 02:34:50;;;;;;;10.13;1.60;;;;;;;;;;5036221;28;20041;-92
2023/12/29 02:37:16;;;;;;;9.88;1.15;;;;;;;;;;5038694;28;20013;-91
2023/12/29 02:39:42;;;;;;;10.27;0.90;;;;;;;;;;5038355;28;20036;-91
2023/12/29 02:42:07;;;;;;;8.25;1.25;;;;;;;;;;5038105;28;20032;-90
2023/12/29 02:44:32;;;;;;;9.57;1.10;;;;;;;;;;5015929;28;20482;-91
2023/12/29 02:46:59;;;;;;;10.43;1.60;;;;;;;;;;5030417;28;20030;-90
2023/12/29 02:49:25;;;;;;;13.05;2.00;;;;;;;;;;5031378;28;20014;-90
2023/12/29 02:51:51;;;;;;;7.85;1.17;;;;;;;;;;5014593;28;20092;-93
2023/12/29 02:54:16;;;;;;;8.53;1.20;;;;;;;;;;5015515;28;20026;-91
2023/12/29 02:56:41;;;;;;;9.20;1.00;;;;;;;;;;5032015;28;20013;-91
2023/12/29 02:59:06;;;;;;;6.10;1.10;;;;;;;;;;5011916;28;20022;-92
2023/12/29 03:01:31;;;;;;;13.57;1.20;;;;;;;;;;5033422;28;20036;-91
2023/12/29 03:03:58;;;;;;;9.90;1.50;;;;;;;;;;5030761;28;20090;-91
2023/12/29 03:06:25;;;;;;;8.90;1.23;;;;;;;;;;5035012;28;20013;-92
2023/12/29 03:08:50;;;;;;;8.27;1.43;;;;;;;;;;5035427;28;20018;-91
2023/12/29 03:11:16;;;;;;;11.87;1.10;;;;;;;;;;5037010;28;20323;-91
2023/12/29 03:13:42;;;;;;;10.00;1.67;;;;;;;;;;5037835;28;20125;-91
2023/12/29 03:16:07;;;;;;;10.77;1.50;;;;;;;;;;5036994;28;20022;-91
2023/12/29 03:18:38;;;;;;;11.17;1.70;;;;;;;;;;5036165;28;20294;-90
2023/12/29 03:21:03;;;;;;;8.53;1.67;;;;;;;;;;5024870;28;19995;-92
2023/12/29 03:23:28;;;;;;;11.10;1.45;;;;;;;;;;5017094;28;20054;-92
2023/12/29 03:25:53;;;;;;;8.50;1.50;;;;;;;;;;5017551;28;20078;-92
2023/12/29 03:28:19;;;;;;;6.17;1.00;;;;;;;;;;5017274;28;20157;-91
2023/12/29 03:30:44;;;;;;;10.17;1.60;;;;;;;;;;5000394;28;20078;-91
2023/12/29 03:33:09;;;;;;;7.40;1.30;;;;;;;;;;5015860;28;20010;-92
2023/12/29 03:35:34;;;;;;;8.87;1.43;;;;;;;;;;5016736;28;20025;-91
2023/12/29 03:38:00;;;;;;;13.00;1.47;;;;;;;;;;5015314;28;20053;-90
2023/12/29 03:40:25;;;;;;;13.10;1.47;;;;;;;;;;5016183;28;20022;-90
2023/12/29 03:42:50;;;;;;;8.87;1.50;;;;;;;;;;5000709;28;20030;-91
2023/12/29 03:45:16;;;;;;;9.60;1.53;;;;;;;;;;5019273;28;20034;-92
2023/12/29 03:47:41;;;;;;;10.70;1.50;;;;;;;;;;5028862;28;20018;-91
2023/12/29 03:50:08;;;;;;;8.83;1.37;;;;;;;;;;5037191;28;20456;-92
2023/12/29 03:52:33;;;;;;;10.03;1.17;;;;;;;;;;5020539;28;20113;-92
2023/12/29 03:54:58;;;;;;;10.37;2.03;;;;;;;;;;5036905;28;20029;-91
2023/12/29 03:57:23;;;;;;;10.73;1.50;;;;;;;;;;5036044;28;20033;-93
2023/12/29 03:59:48;;;;;;;13.17;2.00;;;;;;;;;;5019493;28;20002;-92
2023/12/29 04:02:14;;;;;;;9.55;1.38;;;;;;;;;;4999094;28;20065;-91
2023/12/29 04:04:39;;;;;;;11.53;1.40;;;;;;;;;;4983831;28;20011;-92
2023/12/29 04:07:05;;;;;;;9.27;1.70;;;;;;;;;;5016153;28;20074;-92
2023/12/29 04:09:31;;;;;;;11.85;1.80;;;;;;;;;;5016945;28;20002;-92
2023/12/29 04:11:57;;;;;;;17.10;1.60;;;;;;;;;;5015585;28;20030;-93
2023/12/29 04:14:23;;;;;;;4.87;1.17;;;;;;;;;;5000695;28;20101;-92
2023/12/29 04:16:48;;;;;;;11.27;1.63;;;;;;;;;;5036356;28;20280;-92
2023/12/29 04:19:13;;;;;;;7.20;1.30;;;;;;;;;;5034837;28;20049;-91
2023/12/29 04:21:38;;;;;;;15.17;2.00;;;;;;;;;;5035625;28;20044;-91
2023/12/29 04:24:03;;;;;;;12.43;1.20;;;;;;;;;;5037445;28;20111;-92
2023/12/29 04:26:29;;;;;;;9.80;1.57;;;;;;;;;;5036695;28;20060;-92
2023/12/29 04:28:54;;;;;;;13.00;1.97;;;;;;;;;;5036600;28;20033;-92
2023/12/29 04:31:19;;;;;;;9.40;1.37;;;;;;;;;;5026476;28;20018;-92
2023/12/29 04:33:44;;;;;;;7.90;1.30;;;;;;;;;;5017312;28;20084;-92
2023/12/29 04:36:10;;;;;;;13.00;1.73;;;;;;;;;;5016741;28;20006;-93
2023/12/29 04:38:39;;;;;;;10.30;2.03;;;;;;;;;;5014544;28;20054;-91
2023/12/29 04:41:04;;;;;;;8.85;1.40;;;;;;;;;;4997179;28;20006;-93
2023/12/29 04:43:29;;;;;;;7.83;1.93;;;;;;;;;;5014825;28;20053;-92
2023/12/29 04:45:56;;;;;;;15.20;1.57;;;;;;;;;;5011983;28;20010;-93
2023/12/29 04:48:22;;;;;;;11.85;1.63;;;;;;;;;;5032807;28;20009;-92
2023/12/29 04:50:47;;;;;;;11.73;1.40;;;;;;;;;;5036238;28;20098;-92
2023/12/29 04:53:12;;;;;;;10.23;1.60;;;;;;;;;;5036455;28;20087;-93
2023/12/29 04:55:37;;;;;;;9.83;1.83;;;;;;;;;;5018783;28;20018;-93
2023/12/29 04:58:03;;;;;;;10.33;1.43;;;;;;;;;;5035057;28;20026;-93
2023/12/29 05:00:28;;;;;;;7.93;1.70;;;;;;;;;;5035458;28;20013;-94
2023/12/29 05:02:53;;;;;;;12.47;2.67;;;;;;;;;;5034252;28;20033;-94
2023/12/29 05:05:18;;;;;;;12.60;1.73;;;;;;;;;;5014010;28;20022;-94
2023/12/29 05:07:43;;;;;;;11.90;1.73;;;;;;;;;;5018886;28;20021;-93
2023/12/29 05:10:09;;;;;;;15.50;2.00;;;;;;;;;;5034788;28;20042;-93
2023/12/29 05:12:34;;;;;;;9.00;1.73;;;;;;;;;;5035827;28;20053;-93
2023/12/29 05:14:59;;;;;;;10.67;2.10;;;;;;;;;;5017385;28;20116;-92
2023/12/29 05:17:24;;;;;;;12.83;1.90;;;;;;;;;;5034310;28;20082;-92
2023/12/29 05:19:49;;;;;;;11.90;1.63;;;;;;;;;;5032240;28;20033;-93
2023/12/29 05:22:17;;;;;;;19.00;1.80;;;;;;;;;;5029856;28;20083;-93
2023/12/29 05:24:42;;;;;;;14.07;2.00;;;;;;;;;;5018673;28;20014;-93
2023/12/29 05:27:07;;;;;;;9.53;1.57;;;;;;;;;;5015537;28;20064;-93
2023/12/29 05:29:33;;;;;;;16.97;2.20;;;;;;;;;;5013074;28;20029;-92
2023/12/29 05:32:02;;;;;;;10.10;1.50;;;;;;;;;;5014532;28;20014;-93
2023/12/29 05:34:27;;;;;;;15.27;1.52;;;;;;;;;;5003297;28;20082;-93
2023/12/29 05:36:52;;;;;;;14.30;1.73;;;;;;;;;;5006234;28;20002;-93
2023/12/29 05:39:26;;;;;;;10.07;1.60;;;;;;;;;;5035912;28;20010;-96
2023/12/29 05:41:51;;;;;;;11.52;2.00;;;;;;;;;;5035082;28;20098;-94
2023/12/29 05:44:17;;;;;;;13.03;1.97;;;;;;;;;;5034613;28;20041;-94
2023/12/29 05:46:45;;;;;;;12.40;1.40;;;;;;;;;;5035516;28;20057;-93
2023/12/29 05:49:11;;;;;;;11.18;1.60;;;;;;;;;;5033619;28;20082;-94
2023/12/29 05:51:36;;;;;;;11.13;2.13;;;;;;;;;;5031761;28;20026;-93
2023/12/29 05:54:01;;;;;;;13.57;1.40;;;;;;;;;;5029239;28;20022;-94
2023/12/29 05:56:26;;;;;;;10.27;1.80;;;;;;;;;;5034181;28;20029;-94
2023/12/29 05:58:51;;;;;;;10.37;1.20;;;;;;;;;;5016712;28;20037;-93
2023/12/29 06:01:17;;;;;;;9.07;1.37;;;;;;;;;;5031988;28;20017;-93
2023/12/29 06:03:42;;;;;;;6.60;1.33;;;;;;;;;;5017942;28;20028;-92
2023/12/29 06:06:08;;;;;;;10.77;1.60;;;;;;;;;;5018988;28;20081;-92
2023/12/29 06:08:33;;;;;;;10.90;1.33;;;;;;;;;;4999245;28;20010;-92
2023/12/29 06:10:59;;;;;;;11.13;1.37;;;;;;;;;;5015680;28;20021;-92
2023/12/29 06:13:24;;;;;;;7.93;1.48;;;;;;;;;;5027591;28;20185;-93
2023/12/29 06:15:49;;;;;;;10.77;1.37;;;;;;;;;;5036166;28;20057;-96
2023/12/29 06:18:14;;;;;;;8.33;1.50;;;;;;;;;;5035929;28;20018;-94
2023/12/29 06:20:40;;;;;;;11.93;1.77;;;;;;;;;;5034663;28;20087;-95
2023/12/29 06:23:05;;;;;;;9.03;1.80;;;;;;;;;;5014941;28;20033;-95
2023/12/29 06:25:30;;;;;;;12.50;1.57;;;;;;;;;;5019046;28;20010;-96
2023/12/29 06:27:55;;;;;;;10.43;1.40;;;;;;;;;;5036120;28;20044;-96
2023/12/29 06:30:21;;;;;;;11.30;1.27;;;;;;;;;;5036624;28;20018;-95
2023/12/29 06:32:46;;;;;;;11.17;1.70;;;;;;;;;;5036956;28;20017;-93
2023/12/29 06:35:13;;;;;;;12.37;1.70;;;;;;;;;;5040558;28;20089;-93
2023/12/29 06:45:41;;;;;;;13.60;1.70;;;;;;;;;;787375;22;20304;-93
2023/12/29 06:48:40;;;;;;;12.45;1.50;;;;;;;;;;5020596;28;20536;-96
2023/12/29 06:51:05;;;;;;;17.00;1.45;;;;;;;;;;4972113;29;20084;-94
2023/12/29 06:53:31;;;;;;;13.70;1.80;;;;;;;;;;4978733;28;20011;-94
2023/12/29 06:55:56;;;;;;;6.80;1.33;;;;;;;;;;5007424;28;20048;-90
2023/12/29 06:58:21;;;;;;;6.23;1.00;;;;;;;;;;5007543;28;20022;-90
2023/12/29 07:00:46;;;;;;;8.80;1.47;;;;;;;;;;5033808;28;20161;-90
2023/12/29 07:03:15;;;;;;;6.17;1.30;;;;;;;;;;5035460;28;20026;-91
2023/12/29 07:05:40;;;;;;;6.57;1.20;;;;;;;;;;5037474;28;20025;-90
2023/12/29 07:08:05;;;;;;;8.37;1.60;;;;;;;;;;5038041;28;20041;-91
2023/12/29 07:10:31;;;;;;;12.10;1.60;;;;;;;;;;5037733;28;20037;-91
2023/12/29 07:12:56;;;;;;;10.47;1.87;;;;;;;;;;5036469;28;20082;-92
2023/12/29 07:15:22;;;;;;;9.00;1.70;;;;;;;;;;5037458;28;20276;-90
2023/12/29 07:17:47;;;;;;;7.43;1.40;;;;;;;;;;5037036;28;20053;-95
2023/12/29 07:20:13;;;;;;;11.23;2.03;;;;;;;;;;5036909;28;20018;-90
2023/12/29 07:22:38;;;;;;;8.67;1.83;;;;;;;;;;5037179;28;20034;-91
2023/12/29 07:25:04;;;;;;;10.27;1.70;;;;;;;;;;5036900;28;20018;-90
2023/12/29 07:27:29;;;;;;;11.00;1.90;;;;;;;;;;5036816;28;20040;-90
2023/12/29 07:29:54;;;;;;;9.60;1.40;;;;;;;;;;5037152;28;20026;-91
2023/12/29 07:32:20;;;;;;;6.15;1.52;;;;;;;;;;5035523;28;20009;-90
2023/12/29 07:34:45;;;;;;;7.03;1.30;;;;;;;;;;5033585;28;20021;-91
2023/12/29 07:37:10;;;;;;;5.57;1.33;;;;;;;;;;5032747;28;20022;-89
2023/12/29 07:39:38;;;;;;;9.40;1.27;;;;;;;;;;5035076;28;20042;-89
2023/12/29 07:42:03;;;;;;;8.07;0.85;;;;;;;;;;5035683;28;20032;-90
2023/12/29 07:44:29;;;;;;;8.73;1.20;;;;;;;;;;5035636;28;20014;-90
2023/12/29 07:55:16;;;;;;;4.87;1.23;;;;;;;;;;5784613;22;20038;-92
2023/12/29 08:03:58;;;;;;;8.05;1.05;;;;;;;;;;5018618;28;20142;-93
2023/12/29 08:11:42;;;;;;;4.30;0.90;;;;;;;;;;5143524;22;20048;-93
2023/12/29 08:14:09;;;;;;;3.05;0.77;;;;;;;;;;5037192;28;20006;-92
2023/12/29 08:16:38;;;;;;;5.80;0.85;;;;;;;;;;5043786;28;20071;-94
2023/12/29 08:19:03;;;;;;;4.55;0.93;;;;;;;;;;5037314;28;20018;-94
2023/12/29 08:21:28;;;;;;;5.40;1.23;;;;;;;;;;5037155;28;20108;-95
2023/12/29 08:23:54;;;;;;;4.83;0.77;;;;;;;;;;5036942;28;20025;-92
2023/12/29 08:26:20;;;;;;;4.90;0.80;;;;;;;;;;5036485;28;20013;-93
2023/12/29 08:28:48;;;;;;;6.55;1.20;;;;;;;;;;5036436;28;20021;-93
2023/12/29 08:31:14;;;;;;;2.72;1.05;;;;;;;;;;5034425;28;20022;-90
2023/12/29 08:33:39;;;;;;;5.47;0.90;;;;;;;;;;5035524;28;20003;-91
2023/12/29 08:36:04;;;;;;;3.60;0.90;;;;;;;;;;5037029;28;20013;-90
2023/12/29 08:38:31;;;;;;;4.80;1.00;;;;;;;;;;5034139;28;20049;-86
2023/12/29 08:40:56;;;;;;;4.75;0.82;;;;;;;;;;5030863;28;20026;-88
2023/12/29 08:43:21;;;;;;;14.80;1.50;;;;;;;;;;5033222;28;20058;-88
2023/12/29 08:45:47;;;;;;;4.83;0.80;;;;;;;;;;5033732;28;20101;-91
2023/12/29 08:48:12;;;;;;;3.28;0.80;;;;;;;;;;5032726;28;20065;-94
2023/12/29 08:50:37;;;;;;;4.43;0.90;;;;;;;;;;5033190;28;20038;-91
2023/12/29 08:53:02;;;;;;;5.13;0.93;;;;;;;;;;5029152;28;20030;-92
2023/12/29 08:55:28;;;;;;;7.33;0.90;;;;;;;;;;5031101;28;20029;-91
2023/12/29 08:57:53;;;;;;;4.43;1.00;;;;;;;;;;5035757;28;20197;-92
2023/12/29 09:00:18;;;;;;;4.37;0.83;;;;;;;;;;5035098;28;20026;-92
2023/12/29 09:02:44;;;;;;;2.13;0.80;;;;;;;;;;5035819;28;20094;-92
2023/12/29 09:05:09;;;;;;;3.55;0.80;;;;;;;;;;5034731;28;20061;-92
2023/12/29 09:07:34;;;;;;;3.77;0.87;;;;;;;;;;5036695;28;20006;-91
2023/12/29 09:10:02;;;;;;;1.10;0.47;;;;;;;;;;5035773;28;20029;-92
2023/12/29 09:12:27;;;;;;;5.32;0.70;;;;;;;;;;5035238;28;20010;-89
2023/12/29 09:14:53;;;;;;;3.87;0.77;;;;;;;;;;5035840;28;20090;-94
2023/12/29 09:17:18;;;;;;;6.17;0.70;;;;;;;;;;5034811;28;20056;-93
2023/12/29 09:19:44;;;;;;;3.23;0.80;;;;;;;;;;5034268;28;20009;-94
2023/12/29 09:22:10;;;;;;;3.55;0.60;;;;;;;;;;5034602;28;20028;-93
2023/12/29 09:24:35;;;;;;;4.77;0.63;;;;;;;;;;5035761;28;20010;-94
2023/12/29 09:27:00;;;;;;;1.60;0.60;;;;;;;;;;5033542;28;20025;-94
2023/12/29 09:29:25;;;;;;;6.13;0.80;;;;;;;;;;5016559;28;20026;-92
2023/12/29 09:31:50;;;;;;;2.77;0.57;;;;;;;;;;5033776;28;20025;-91
2023/12/29 09:34:17;;;;;;;4.17;1.00;;;;;;;;;;5035056;28;20049;-92
2023/12/29 09:36:42;;;;;;;3.63;0.80;;;;;;;;;;5035721;28;20080;-92
2023/12/29 09:39:08;;;;;;;2.70;0.70;;;;;;;;;;5033311;28;20010;-91
2023/12/29 09:41:33;;;;;;;2.83;0.70;;;;;;;;;;5035025;28;20002;-92
2023/12/29 09:44:01;;;;;;;1.95;0.70;;;;;;;;;;5033835;28;20294;-93
2023/12/29 09:46:27;;;;;;;2.20;0.50;;;;;;;;;;5038435;28;20061;-92
2023/12/29 09:48:52;;;;;;;2.97;0.57;;;;;;;;;;5039150;28;20510;-94
2023/12/29 09:51:22;;;;;;;4.78;0.70;;;;;;;;;;5033965;28;20018;-93
2023/12/29 09:53:47;;;;;;;4.97;1.08;;;;;;;;;;5016507;28;20025;-93
2023/12/29 09:56:14;;;;;;;4.70;1.03;;;;;;;;;;5033624;28;20014;-94
2023/12/29 09:58:40;;;;;;;2.17;0.70;;;;;;;;;;5023227;28;20022;-92
2023/12/29 10:01:06;;;;;;;5.40;0.85;;;;;;;;;;5033472;28;20021;-92
2023/12/29 10:03:31;;;;;;;3.43;0.93;;;;;;;;;;5033205;28;20018;-91
2023/12/29 10:05:59;;;;;;;1.92;0.47;;;;;;;;;;5033784;28;20069;-93
2023/12/29 10:08:25;;;;;;;2.25;0.50;;;;;;;;;;5034844;28;20270;-92
2023/12/29 10:10:51;;;;;;;1.93;0.77;;;;;;;;;;5038066;28;20018;-93
2023/12/29 10:13:17;;;;;;;5.07;0.60;;;;;;;;;;5025372;28;20025;-93
2023/12/29 10:15:47;;;;;;;3.28;0.60;;;;;;;;;;5029234;28;20037;-91
2023/12/29 10:18:32;;;;;;;2.40;0.60;;;;;;;;;;5039144;28;20022;-91
2023/12/29 10:21:04;;;;;;;2.92;0.65;;;;;;;;;;5039990;28;20010;-92
2023/12/29 10:23:40;;;;;;;0.90;0.55;;;;;;;;;;5028581;28;20045;-92
2023/12/29 10:26:07;;;;;;;2.00;0.50;;;;;;;;;;5032660;28;20026;-94
2023/12/29 10:28:33;;;;;;;2.58;0.60;;;;;;;;;;5025389;28;20037;-93
2023/12/29 10:30:59;;;;;;;3.00;0.77;;;;;;;;;;5026017;28;20037;-89
2023/12/29 10:33:24;;;;;;;2.70;0.50;;;;;;;;;;5015804;28;20048;-90
2023/12/29 10:36:03;;;;;;;0.85;0.60;;;;;;;;;;5016038;28;20053;-88
2023/12/29 10:38:29;;;;;;;0.77;0.60;;;;;;;;;;5014914;28;20022;-89
2023/12/29 10:41:09;;;;;;;2.33;0.60;;;;;;;;;;5019311;28;21109;-89
2023/12/29 10:43:35;;;;;;;2.40;0.68;;;;;;;;;;5017795;28;20030;-88
2023/12/29 10:46:09;;;;;;;1.77;0.50;;;;;;;;;;5003707;28;20077;-91
2023/12/29 10:48:35;;;;;;;2.83;0.70;;;;;;;;;;5018740;28;20061;-91
2023/12/29 10:51:03;;;;;;;3.93;0.70;;;;;;;;;;5035599;28;20010;-90
2023/12/29 10:53:29;;;;;;;3.45;0.57;;;;;;;;;;5037798;28;20006;-91
2023/12/29 10:55:55;;;;;;;2.45;0.75;;;;;;;;;;5037096;28;20084;-92
2023/12/29 10:58:20;;;;;;;3.43;0.90;;;;;;;;;;5037596;28;20079;-93
2023/12/29 11:00:45;;;;;;;4.67;0.80;;;;;;;;;;5026971;28;20006;-92
2023/12/29 11:03:15;;;;;;;4.70;0.70;;;;;;;;;;5019087;28;20304;-89
2023/12/29 11:05:40;;;;;;;4.17;1.00;;;;;;;;;;5035707;28;20010;-90
2023/12/29 11:08:14;;;;;;;4.43;0.70;;;;;;;;;;5037032;28;20288;-89
2023/12/29 11:10:40;;;;;;;3.03;0.73;;;;;;;;;;5034531;28;20030;-90
2023/12/29 11:13:06;;;;;;;7.33;0.90;;;;;;;;;;5036550;28;20018;-90
2023/12/29 11:15:32;;;;;;;7.68;1.20;;;;;;;;;;5036408;28;20021;-90
2023/12/29 11:17:59;;;;;;;5.43;1.53;;;;;;;;;;5036440;28;20014;-90
2023/12/29 11:20:26;;;;;;;6.38;1.02;;;;;;;;;;5034882;28;20087;-90
2023/12/29 11:22:51;;;;;;;6.93;1.13;;;;;;;;;;5035594;28;20014;-90
2023/12/29 11:25:16;;;;;;;6.00;0.90;;;;;;;;;;5036854;28;20002;-91
2023/12/29 11:30:17;;;;;;;3.75;0.90;;;;;;;;;;6122375;22;20818;-89
2023/12/29 11:35:49;;;;;;;4.63;0.85;;;;;;;;;;5035192;28;20029;-90
2023/12/29 11:38:41;;;;;;;5.00;1.10;;;;;;;;;;5017350;28;20126;-91
2023/12/29 11:41:12;;;;;;;6.75;0.90;;;;;;;;;;5016688;28;20018;-91
2023/12/29 11:43:37;;;;;;;3.15;1.10;;;;;;;;;;5013877;28;20046;-91
2023/12/29 11:46:03;;;;;;;9.60;1.10;;;;;;;;;;5018465;28;20022;-92
2023/12/29 11:48:47;;;;;;;7.43;1.10;;;;;;;;;;5016540;28;20074;-91
2023/12/29 11:51:27;;;;;;;2.70;0.90;;;;;;;;;;5022183;28;20289;-92
2023/12/29 11:53:52;;;;;;;4.18;0.90;;;;;;;;;;5024503;28;20015;-94
2023/12/29 11:56:17;;;;;;;5.03;0.90;;;;;;;;;;5007642;28;20029;-93
2023/12/29 11:58:42;;;;;;;4.53;0.80;;;;;;;;;;4997311;28;20082;-92
2023/12/29 12:01:08;;;;;;;5.47;0.90;;;;;;;;;;4999450;28;20026;-93
2023/12/29 12:03:33;;;;;;;3.40;1.03;;;;;;;;;;5000470;28;20072;-90
2023/12/29 12:06:02;;;;;;;5.23;0.77;;;;;;;;;;5015762;28;20014;-91
2023/12/29 12:08:31;;;;;;;6.47;0.80;;;;;;;;;;4988307;28;20998;-91
2023/12/29 12:11:17;;;;;;;6.15;0.88;;;;;;;;;;4999119;28;20026;-88
2023/12/29 12:13:46;;;;;;;4.32;0.93;;;;;;;;;;5014811;28;20038;-88
2023/12/29 12:16:36;;;;;;;2.22;0.65;;;;;;;;;;5015194;28;20057;-88
2023/12/29 12:19:04;;;;;;;3.78;0.80;;;;;;;;;;5014968;28;20026;-90
2023/12/29 12:21:29;;;;;;;1.90;0.77;;;;;;;;;;5013083;28;20033;-90
2023/12/29 12:23:55;;;;;;;2.40;0.60;;;;;;;;;;4996403;28;20306;-87
2023/12/29 12:26:21;;;;;;;1.90;0.70;;;;;;;;;;5008287;28;20010;-89
2023/12/29 12:28:47;;;;;;;4.45;0.90;;;;;;;;;;5022408;28;20033;-91
2023/12/29 12:31:12;;;;;;;0.87;0.60;;;;;;;;;;5013634;28;20006;-91
2023/12/29 12:33:37;;;;;;;2.92;0.75;;;;;;;;;;5012963;28;20093;-88
2023/12/29 12:36:03;;;;;;;4.90;0.90;;;;;;;;;;5024022;28;20030;-88
2023/12/29 12:38:30;;;;;;;2.73;0.93;;;;;;;;;;5014776;28;20041;-89
2023/12/29 12:40:55;;;;;;;7.97;1.40;;;;;;;;;;5014944;28;20086;-89
2023/12/29 12:43:24;;;;;;;3.43;1.10;;;;;;;;;;5014936;28;20034;-90
2023/12/29 12:45:59;;;;;;;3.63;0.98;;;;;;;;;;5014704;28;20022;-88
2023/12/29 12:48:35;;;;;;;4.78;1.20;;;;;;;;;;5003502;28;20003;-88
2023/12/29 12:51:01;;;;;;;6.43;1.20;;;;;;;;;;5015795;28;20041;-88
2023/12/29 12:53:27;;;;;;;5.70;1.40;;;;;;;;;;5005518;28;20277;-88
2023/12/29 12:55:53;;;;;;;5.10;1.50;;;;;;;;;;5008211;28;20026;-90
2023/12/29 12:58:20;;;;;;;4.77;1.70;;;;;;;;;;5014488;28;20301;-88
2023/12/29 13:00:46;;;;;;;3.15;1.10;;;;;;;;;;5014842;28;20018;-88
2023/12/29 13:03:11;;;;;;;2.65;1.23;;;;;;;;;;5010792;28;20035;-88
2023/12/29 13:05:37;;;;;;;9.13;1.20;;;;;;;;;;5004163;28;20089;-88
2023/12/29 13:08:03;;;;;;;9.90;1.15;;;;;;;;;;4990624;28;20026;-87
2023/12/29 13:10:29;;;;;;;3.03;0.97;;;;;;;;;;4987995;28;20382;-89
2023/12/29 13:12:54;;;;;;;5.17;1.47;;;;;;;;;;4997382;28;20289;-89
2023/12/29 13:15:20;;;;;;;3.83;1.20;;;;;;;;;;5010785;28;20069;-89
2023/12/29 13:17:51;;;;;;;4.47;1.47;;;;;;;;;;5025796;28;20015;-89
2023/12/29 13:20:17;;;;;;;5.00;1.50;;;;;;;;;;5013992;28;20019;-90
2023/12/29 13:22:42;;;;;;;4.43;1.80;;;;;;;;;;5014626;28;20036;-91
2023/12/29 13:25:09;;;;;;;4.53;1.48;;;;;;;;;;5008773;28;20048;-88
2023/12/29 13:27:36;;;;;;;3.88;1.75;;;;;;;;;;5014990;28;20022;-89
2023/12/29 13:30:02;;;;;;;6.93;1.80;;;;;;;;;;5013749;28;20006;-91
2023/12/29 13:32:29;;;;;;;3.87;1.70;;;;;;;;;;5014004;28;20348;-90
2023/12/29 13:35:13;;;;;;;6.43;1.95;;;;;;;;;;4985011;28;20021;-88
2023/12/29 13:37:47;;;;;;;4.05;2.00;;;;;;;;;;5004936;28;20022;-89
2023/12/29 13:40:31;;;;;;;7.30;3.43;;;;;;;;;;5006328;28;20011;-89
2023/12/29 13:43:00;;;;;;;9.30;3.70;;;;;;;;;;4996405;28;20045;-89
2023/12/29 13:45:26;;;;;;;19.00;9.60;;;;;;;;;;5011294;28;20089;-90
2023/12/29 13:47:52;;;;;;;8.40;4.97;;;;;;;;;;5013244;28;20018;-89
2023/12/29 13:50:17;;;;;;;9.00;3.00;;;;;;;;;;5008756;28;20044;-90
2023/12/29 13:52:43;;;;;;;11.65;2.70;;;;;;;;;;5011751;28;20030;-90
2023/12/29 13:55:08;;;;;;;11.07;2.67;;;;;;;;;;5011594;28;20029;-90
2023/12/29 13:57:34;;;;;;;13.73;2.43;;;;;;;;;;5006007;28;20022;-91
2023/12/29 14:00:29;;;;;;;10.18;1.95;;;;;;;;;;5029234;28;20030;-89
2023/12/29 14:02:55;;;;;;;7.97;1.70;;;;;;;;;;5007373;28;20098;-89
2023/12/29 14:05:27;;;;;;;6.72;1.40;;;;;;;;;;5014654;28;20011;-90
2023/12/29 14:08:04;;;;;;;5.70;2.00;;;;;;;;;;5014539;28;20018;-90
2023/12/29 14:10:35;;;;;;;8.73;1.77;;;;;;;;;;5013843;28;20094;-89
2023/12/29 14:13:14;;;;;;;4.78;1.30;;;;;;;;;;4997152;28;20018;-89
2023/12/29 14:15:40;;;;;;;7.00;1.30;;;;;;;;;;4991904;28;20533;-90
2023/12/29 14:18:25;;;;;;;4.90;1.08;;;;;;;;;;4991565;28;20045;-90
2023/12/29 14:20:50;;;;;;;3.58;1.05;;;;;;;;;;4990353;28;20034;-89
2023/12/29 14:23:18;;;;;;;5.17;1.20;;;;;;;;;;4981997;28;20029;-91
2023/12/29 14:25:43;;;;;;;7.22;1.30;;;;;;;;;;5011686;28;20054;-89
2023/12/29 14:28:16;;;;;;;5.53;1.33;;;;;;;;;;4992095;28;20030;-90
2023/12/29 14:30:41;;;;;;;4.22;1.00;;;;;;;;;;4989805;28;20018;-89
2023/12/29 14:33:07;;;;;;;3.87;1.30;;;;;;;;;;5020858;28;20405;-90
2023/12/29 14:35:32;;;;;;;4.57;1.30;;;;;;;;;;4998443;28;20038;-91
2023/12/29 14:37:58;;;;;;;4.27;1.20;;;;;;;;;;5007088;28;20034;-90
2023/12/29 14:40:23;;;;;;;4.73;1.10;;;;;;;;;;5012661;28;20026;-90
2023/12/29 14:42:49;;;;;;;1.60;1.00;;;;;;;;;;5014260;28;20034;-90
2023/12/29 14:45:14;;;;;;;6.50;0.90;;;;;;;;;;4996782;28;20097;-91
2023/12/29 14:47:40;;;;;;;6.53;1.30;;;;;;;;;;4990565;28;20006;-91
2023/12/29 14:50:05;;;;;;;2.30;0.80;;;;;;;;;;4995732;28;20087;-90
2023/12/29 14:52:32;;;;;;;4.32;0.88;;;;;;;;;;4995671;28;20027;-90
2023/12/29 14:54:58;;;;;;;2.63;0.93;;;;;;;;;;5015807;28;20022;-91
2023/12/29 14:57:23;;;;;;;5.72;0.80;;;;;;;;;;5018208;28;20033;-89
2023/12/29 14:59:49;;;;;;;5.15;1.10;;;;;;;;;;5000536;28;20022;-90
2023/12/29 15:02:15;;;;;;;8.63;1.03;;;;;;;;;;5000850;28;20045;-90
2023/12/29 15:04:40;;;;;;;6.13;1.10;;;;;;;;;;5017528;28;20010;-90
2023/12/29 15:07:05;;;;;;;5.67;1.03;;;;;;;;;;5018665;28;20416;-90
2023/12/29 15:09:30;;;;;;;11.70;1.20;;;;;;;;;;5018000;28;20022;-89